Time,TemperatureF,DewpointF,PressureIn,WindDirection,WindDirectionDegrees,WindSpeedMPH,WindSpeedGustMPH,Humidity,HourlyPrecipIn,Conditions,Clouds,dailyrainin,SoftwareType,DateUTC
2013-01-08 03:40:00,75.0,62.4,30.14,ESE,112,9.0,19.0,65,0.00,,,-99.99,Weather View 32 v70,2013-01-08 08:40:00,
2013-01-08 03:50:00,75.0,62.0,30.14,ESE,112,7.0,19.0,64,0.00,,,-99.99,Weather View 32 v70,2013-01-08 08:50:00,
2013-01-08 04:00:00,76.0,64.2,30.15,ESE,112,4.0,19.0,67,0.00,,,-99.99,Weather View 32 v70,2013-01-08 09:00:00,
2013-01-08 04:10:00,76.0,63.8,30.14,ESE,112,11.0,19.0,66,0.00,,,-99.99,Weather View 32 v70,2013-01-08 09:10:00,
2013-01-08 04:20:00,76.0,63.3,30.14,East,90,5.0,19.0,65,0.00,,,-99.99,Weather View 32 v70,2013-01-08 09:20:00,
2013-01-08 04:30:00,76.0,62.4,30.15,East,90,9.0,19.0,63,0.00,,,-99.99,Weather View 32 v70,2013-01-08 09:30:00,
2013-01-08 04:40:00,75.0,60.1,30.15,ESE,112,7.0,16.0,60,0.00,,,-99.99,Weather View 32 v70,2013-01-08 09:40:00,
2013-01-08 04:50:00,75.0,61.1,30.15,ESE,112,4.0,16.0,62,0.00,,,-99.99,Weather View 32 v70,2013-01-08 09:50:00,
2013-01-08 05:00:00,75.0,61.1,30.16,ESE,112,7.0,15.0,62,0.00,,,-99.99,Weather View 32 v70,2013-01-08 10:00:00,
2013-01-08 05:20:00,75.0,61.5,30.16,ESE,112,6.0,19.0,63,0.00,,,-99.99,Weather View 32 v70,2013-01-08 10:20:00,
2013-01-08 05:30:00,75.0,62.8,30.16,East,90,9.0,19.0,66,0.00,,,-99.99,Weather View 32 v70,2013-01-08 10:30:00,
2013-01-08 05:40:00,75.0,62.0,30.16,East,90,12.0,19.0,64,0.00,,,-99.99,Weather View 32 v70,2013-01-08 10:40:00,
2013-01-08 05:50:00,75.0,63.3,30.17,East,90,12.0,19.0,67,0.00,,,-99.99,Weather View 32 v70,2013-01-08 10:50:00,
2013-01-08 06:00:00,75.0,62.4,30.18,East,90,7.0,19.0,65,0.00,,,-99.99,Weather View 32 v70,2013-01-08 11:00:00,
2013-01-08 06:10:00,75.0,60.6,30.18,East,90,9.0,19.0,61,0.00,,,-99.99,Weather View 32 v70,2013-01-08 11:10:00,
2013-01-08 06:20:00,75.0,62.8,30.19,East,90,12.0,19.0,66,0.00,,,-99.99,Weather View 32 v70,2013-01-08 11:20:00,
2013-01-08 06:30:00,74.0,60.6,30.20,East,90,13.0,19.0,63,0.00,,,-99.99,Weather View 32 v70,2013-01-08 11:30:00,
2013-01-08 06:40:00,74.0,61.4,30.20,East,90,13.0,19.0,65,0.00,,,-99.99,Weather View 32 v70,2013-01-08 11:40:00,
2013-01-08 06:50:00,74.0,62.7,30.20,East,90,20.0,20.0,68,0.00,,,-99.99,Weather View 32 v70,2013-01-08 11:50:00,
2013-01-08 07:00:00,74.0,61.4,30.20,ENE,67,16.0,20.0,65,0.00,,,-99.99,Weather View 32 v70,2013-01-08 12:00:00,
2013-01-08 07:10:00,74.0,61.4,30.21,ENE,67,12.0,20.0,65,0.00,,,-99.99,Weather View 32 v70,2013-01-08 12:10:00,
2013-01-08 07:20:00,74.0,61.4,30.21,East,90,10.0,20.0,65,0.00,,,-99.99,Weather View 32 v70,2013-01-08 12:20:00,
2013-01-08 07:30:00,74.0,60.1,30.21,East,90,13.0,20.0,62,0.00,,,-99.99,Weather View 32 v70,2013-01-08 12:30:00,
2013-01-08 07:40:00,74.0,61.4,30.22,ESE,112,6.0,20.0,65,0.00,,,-99.99,Weather View 32 v70,2013-01-08 12:40:00,
2013-01-08 07:50:00,74.0,60.1,30.22,East,90,15.0,20.0,62,0.00,,,-99.99,Weather View 32 v70,2013-01-08 12:50:00,
2013-01-08 08:00:00,74.0,60.6,30.22,East,90,13.0,20.0,63,0.00,,,-99.99,Weather View 32 v70,2013-01-08 13:00:00,
2013-01-08 08:10:00,74.0,62.3,30.22,ESE,112,9.0,19.0,67,0.00,,,-99.99,Weather View 32 v70,2013-01-08 13:10:00,
2013-01-08 08:40:00,74.0,61.9,30.23,East,90,12.0,19.0,66,0.00,,,-99.99,Weather View 32 v70,2013-01-08 13:40:00,
2013-01-08 08:50:00,74.0,61.9,30.23,ESE,112,7.0,19.0,66,0.00,,,-99.99,Weather View 32 v70,2013-01-08 13:50:00,
2013-01-08 09:00:00,74.0,62.7,30.23,ENE,67,12.0,19.0,68,0.00,,,-99.99,Weather View 32 v70,2013-01-08 14:00:00,
2013-01-08 09:40:00,74.0,63.6,30.23,East,90,15.0,20.0,70,0.00,,,-99.99,Weather View 32 v70,2013-01-08 14:40:00,
2013-01-08 10:00:00,74.0,62.7,30.22,East,90,14.0,20.0,68,0.00,,,-99.99,Weather View 32 v70,2013-01-08 15:00:00,
2013-01-08 10:30:00,74.0,65.5,30.21,ENE,67,17.0,23.0,75,0.00,,,-99.99,Weather View 32 v70,2013-01-08 15:30:00,
2013-01-08 11:30:00,74.0,65.2,30.22,ENE,67,13.0,22.0,74,0.00,,,-99.99,Weather View 32 v70,2013-01-08 16:30:00,
2013-01-08 11:50:00,74.0,63.6,30.23,ENE,67,19.0,22.0,70,0.00,,,-99.99,Weather View 32 v70,2013-01-08 16:50:00,
2013-01-08 12:00:00,74.0,64.4,30.22,East,90,18.0,22.0,72,0.00,,,-99.99,Weather View 32 v70,2013-01-08 17:00:00,
2013-01-08 12:20:00,74.0,65.2,30.23,ENE,67,17.0,23.0,74,0.00,,,-99.99,Weather View 32 v70,2013-01-08 17:20:00,
2013-01-08 12:30:00,74.0,64.8,30.22,East,90,23.0,24.0,73,0.00,,,-99.99,Weather View 32 v70,2013-01-08 17:30:00,
2013-01-08 12:40:00,74.0,65.5,30.22,East,90,15.0,24.0,75,0.00,,,-99.99,Weather View 32 v70,2013-01-08 17:40:00,
2013-01-08 12:50:00,73.0,62.6,30.22,East,90,16.0,24.0,70,0.00,,,-99.99,Weather View 32 v70,2013-01-08 17:50:00,
2013-01-08 13:00:00,73.0,63.4,30.22,East,90,16.0,24.0,72,0.00,,,-99.99,Weather View 32 v70,2013-01-08 18:00:00,
2013-01-08 13:20:00,73.0,63.0,30.22,East,90,20.0,24.0,71,0.00,,,-99.99,Weather View 32 v70,2013-01-08 18:20:00,
2013-01-08 13:28:00,78.0,74.8,30.22,East,90,10.0,16.0,90,0.00,,,-99.99,Weather View 32 v70,2013-01-08 18:28:00,
2013-01-08 14:00:00,73.0,63.0,30.22,East,90,17.0,24.0,71,0.00,,,-99.99,Weather View 32 v70,2013-01-08 19:00:00,
2013-01-08 14:10:00,73.0,62.6,30.20,East,90,20.0,24.0,70,0.00,,,-99.99,Weather View 32 v70,2013-01-08 19:10:00,
2013-01-08 14:20:00,73.0,60.9,30.21,East,90,18.0,24.0,66,0.00,,,-99.99,Weather View 32 v70,2013-01-08 19:20:00,
2013-01-08 14:28:00,78.0,73.1,30.21,ESE,112,8.0,16.0,85,0.00,,,-99.99,Weather View 32 v70,2013-01-08 19:28:00,
2013-01-08 14:30:00,73.0,61.8,30.20,East,90,17.0,24.0,68,0.00,,,-99.99,Weather View 32 v70,2013-01-08 19:30:00,
2013-01-08 14:38:00,79.0,73.4,30.21,ESE,112,5.0,16.0,83,0.00,,,-99.99,Weather View 32 v70,2013-01-08 19:38:00,
2013-01-08 14:40:00,73.0,62.6,30.20,East,90,17.0,24.0,70,0.00,,,-99.99,Weather View 32 v70,2013-01-08 19:40:00,
2013-01-08 14:50:00,73.0,62.2,30.20,East,90,16.0,24.0,69,0.00,,,-99.99,Weather View 32 v70,2013-01-08 19:50:00,
2013-01-08 15:00:00,73.0,62.6,30.20,ESE,112,15.0,23.0,70,0.00,,,-99.99,Weather View 32 v70,2013-01-08 20:00:00,
2013-01-08 15:10:00,73.0,62.2,30.20,East,90,17.0,23.0,69,0.00,,,-99.99,Weather View 32 v70,2013-01-08 20:10:00,
2013-01-08 15:20:00,73.0,60.9,30.20,East,90,18.0,23.0,66,0.00,,,-99.99,Weather View 32 v70,2013-01-08 20:20:00,
2013-01-08 15:30:00,73.0,61.8,30.19,ESE,112,9.0,23.0,68,0.00,,,-99.99,Weather View 32 v70,2013-01-08 20:30:00,
2013-01-08 15:38:00,78.0,73.8,30.21,ESE,112,7.0,13.0,87,0.00,,,-99.99,Weather View 32 v70,2013-01-08 20:38:00,
2013-01-08 15:48:00,78.0,74.1,30.21,East,90,10.0,15.0,88,0.00,,,-99.99,Weather View 32 v70,2013-01-08 20:48:00,
2013-01-08 15:50:00,73.0,62.6,30.18,East,90,7.0,23.0,70,0.00,,,-99.99,Weather View 32 v70,2013-01-08 20:50:00,
2013-01-08 15:58:00,77.0,73.5,30.21,ESE,112,7.0,15.0,89,0.00,,,-99.99,Weather View 32 v70,2013-01-08 20:58:00,
2013-01-08 16:00:00,73.0,62.6,30.19,East,90,14.0,20.0,70,0.00,,,-99.99,Weather View 32 v70,2013-01-08 21:00:00,
2013-01-08 16:08:00,77.0,73.5,30.21,ESE,112,6.0,15.0,89,0.00,,,-99.99,Weather View 32 v70,2013-01-08 21:08:00,
2013-01-08 16:10:00,72.0,62.0,30.20,ESE,112,11.0,20.0,71,0.00,,,-99.99,Weather View 32 v70,2013-01-08 21:10:00,
2013-01-08 16:18:00,77.0,73.5,30.21,East,90,7.0,15.0,89,0.00,,,-99.99,Weather View 32 v70,2013-01-08 21:18:00,
2013-01-08 16:20:00,72.0,62.8,30.19,ESE,112,13.0,20.0,73,0.00,,,-99.99,Weather View 32 v70,2013-01-08 21:20:00,
2013-01-08 16:28:00,77.0,73.2,30.21,ESE,112,12.0,16.0,88,0.00,,,-99.99,Weather View 32 v70,2013-01-08 21:28:00,
2013-01-08 16:30:00,72.0,62.4,30.20,ESE,112,9.0,20.0,72,0.00,,,-99.99,Weather View 32 v70,2013-01-08 21:30:00,
2013-01-08 16:38:00,77.0,73.2,30.22,East,90,11.0,16.0,88,0.00,,,-99.99,Weather View 32 v70,2013-01-08 21:38:00,
2013-01-08 16:40:00,73.0,64.6,30.19,ESE,112,9.0,20.0,75,0.00,,,-99.99,Weather View 32 v70,2013-01-08 21:40:00,
2013-01-08 16:48:00,77.0,73.2,30.22,East,90,13.0,17.0,88,0.00,,,-99.99,Weather View 32 v70,2013-01-08 21:48:00,
2013-01-08 16:50:00,72.0,62.8,30.20,East,90,12.0,20.0,73,0.00,,,-99.99,Weather View 32 v70,2013-01-08 21:50:00,
2013-01-08 16:58:00,77.0,73.8,30.21,East,90,14.0,19.0,90,0.00,,,-99.99,Weather View 32 v70,2013-01-08 21:58:00,
2013-01-08 17:00:00,73.0,64.6,30.20,East,90,9.0,20.0,75,0.00,,,-99.99,Weather View 32 v70,2013-01-08 22:00:00,
2013-01-08 17:08:00,77.0,73.8,30.22,ENE,67,10.0,19.0,90,0.00,,,-99.99,Weather View 32 v70,2013-01-08 22:08:00,
2013-01-08 17:10:00,72.0,62.0,30.19,East,90,14.0,20.0,71,0.00,,,-99.99,Weather View 32 v70,2013-01-08 22:10:00,
2013-01-08 17:18:00,77.0,73.8,30.22,ESE,112,13.0,19.0,90,0.00,,,-99.99,Weather View 32 v70,2013-01-08 22:18:00,
2013-01-08 17:20:00,73.0,65.0,30.19,ESE,112,14.0,20.0,76,0.00,,,-99.99,Weather View 32 v70,2013-01-08 22:20:00,
2013-01-08 17:30:00,73.0,65.3,30.20,East,90,13.0,20.0,77,0.00,,,-99.99,Weather View 32 v70,2013-01-08 22:30:00,
2013-01-08 17:40:00,72.0,62.8,30.19,East,90,11.0,20.0,73,0.00,,,-99.99,Weather View 32 v70,2013-01-08 22:40:00,
2013-01-08 17:49:00,77.0,73.5,30.23,East,90,15.0,19.0,89,0.00,,,-99.99,Weather View 32 v70,2013-01-08 22:49:00,
2013-01-08 17:50:00,73.0,64.6,30.20,East,90,13.0,20.0,75,0.00,,,-99.99,Weather View 32 v70,2013-01-08 22:50:00,
2013-01-08 18:00:00,72.0,62.0,30.20,ESE,112,6.0,20.0,71,0.00,,,-99.99,Weather View 32 v70,2013-01-08 23:00:00,
2013-01-08 18:08:00,77.0,73.8,30.23,ESE,112,7.0,20.0,90,0.00,,,-99.99,Weather View 32 v70,2013-01-08 23:08:00,
2013-01-08 18:10:00,72.0,61.6,30.19,ESE,112,6.0,19.0,70,0.00,,,-99.99,Weather View 32 v70,2013-01-08 23:10:00,
2013-01-08 18:20:00,73.0,62.6,30.18,ESE,112,9.0,19.0,70,0.00,,,-99.99,Weather View 32 v70,2013-01-08 23:20:00,
2013-01-08 18:28:00,77.0,73.2,30.23,ESE,112,14.0,20.0,88,0.00,,,-99.99,Weather View 32 v70,2013-01-08 23:28:00,
2013-01-08 18:30:00,73.0,62.6,30.19,East,90,13.0,19.0,70,0.00,,,-99.99,Weather View 32 v70,2013-01-08 23:30:00,
2013-01-08 18:38:00,76.0,72.2,30.24,ESE,112,8.0,20.0,88,0.00,,,-99.99,Weather View 32 v70,2013-01-08 23:38:00,
2013-01-08 18:40:00,73.0,63.0,30.19,ESE,112,10.0,17.0,71,0.00,,,-99.99,Weather View 32 v70,2013-01-08 23:40:00,
2013-01-08 18:50:00,72.0,61.6,30.19,ESE,112,9.0,17.0,70,0.00,,,-99.99,Weather View 32 v70,2013-01-08 23:50:00,
2013-01-08 18:59:00,76.0,72.2,30.24,East,90,7.0,20.0,88,0.00,,,-99.99,Weather View 32 v70,2013-01-08 23:59:00,
2013-01-08 19:00:00,73.0,62.2,30.20,East,90,10.0,16.0,69,0.00,,,-99.99,Weather View 32 v70,2013-01-09 00:00:00,
2013-01-08 19:08:00,76.0,72.5,30.26,ESE,112,13.0,20.0,89,0.00,,,-99.99,Weather View 32 v70,2013-01-09 00:08:00,
2013-01-08 19:10:00,73.0,62.6,30.20,East,90,10.0,16.0,70,0.00,,,-99.99,Weather View 32 v70,2013-01-09 00:10:00,
2013-01-08 19:20:00,73.0,63.0,30.20,ESE,112,6.0,18.0,71,0.00,,,-99.99,Weather View 32 v70,2013-01-09 00:20:00,
2013-01-08 19:28:00,76.0,72.2,30.26,ESE,112,13.0,22.0,88,0.00,,,-99.99,Weather View 32 v70,2013-01-09 00:28:00,
2013-01-08 19:30:00,73.0,63.0,30.21,ESE,112,4.0,18.0,71,0.00,,,-99.99,Weather View 32 v70,2013-01-09 00:30:00,
2013-01-08 19:40:00,73.0,63.8,30.21,ESE,112,5.0,18.0,73,0.00,,,-99.99,Weather View 32 v70,2013-01-09 00:40:00,
2013-01-08 19:48:00,76.0,72.5,30.26,East,90,17.0,22.0,89,0.00,,,-99.99,Weather View 32 v70,2013-01-09 00:48:00,
2013-01-08 19:50:00,73.0,63.0,30.22,ESE,112,6.0,18.0,71,0.00,,,-99.99,Weather View 32 v70,2013-01-09 00:50:00,
2013-01-08 19:58:00,76.0,72.8,30.27,ESE,112,8.0,22.0,90,0.00,,,-99.99,Weather View 32 v70,2013-01-09 00:58:00,
2013-01-08 20:00:00,73.0,63.0,30.22,ESE,112,4.0,18.0,71,0.00,,,-99.99,Weather View 32 v70,2013-01-09 01:00:00,
2013-01-08 20:08:00,76.0,72.5,30.26,ESE,112,9.0,22.0,89,0.00,,,-99.99,Weather View 32 v70,2013-01-09 01:08:00,
2013-01-08 20:10:00,73.0,63.8,30.22,ESE,112,6.0,18.0,73,0.00,,,-99.99,Weather View 32 v70,2013-01-09 01:10:00,
2013-01-08 20:18:00,76.0,72.5,30.27,East,90,14.0,22.0,89,0.00,,,-99.99,Weather View 32 v70,2013-01-09 01:18:00,
2013-01-08 20:20:00,73.0,64.2,30.22,ESE,112,3.0,16.0,74,0.00,,,-99.99,Weather View 32 v70,2013-01-09 01:20:00,
2013-01-08 20:30:00,73.0,65.3,30.22,ESE,112,4.0,16.0,77,0.00,,,-99.99,Weather View 32 v70,2013-01-09 01:30:00,
2013-01-08 20:38:00,76.0,72.8,30.26,ESE,112,8.0,22.0,90,0.00,,,-99.99,Weather View 32 v70,2013-01-09 01:38:00,
2013-01-08 20:40:00,73.0,64.2,30.23,East,90,7.0,16.0,74,0.00,,,-99.99,Weather View 32 v70,2013-01-09 01:40:00,
2013-01-08 20:48:00,76.0,73.5,30.27,East,90,9.0,22.0,92,0.00,,,-99.99,Weather View 32 v70,2013-01-09 01:48:00,
2013-01-08 20:50:00,73.0,64.6,30.23,East,90,7.0,15.0,75,0.00,,,-99.99,Weather View 32 v70,2013-01-09 01:50:00,
2013-01-08 20:58:00,76.0,73.8,30.27,East,90,12.0,22.0,93,0.00,,,-99.99,Weather View 32 v70,2013-01-09 01:58:00,
2013-01-08 21:00:00,73.0,63.4,30.23,East,90,13.0,15.0,72,0.00,,,-99.99,Weather View 32 v70,2013-01-09 02:00:00,
2013-01-08 21:18:00,76.0,73.8,30.27,ESE,112,12.0,22.0,93,0.00,,,-99.99,Weather View 32 v70,2013-01-09 02:18:00,
2013-01-08 21:20:00,74.0,64.0,30.24,East,90,10.0,15.0,71,0.00,,,-99.99,Weather View 32 v70,2013-01-09 02:20:00,
2013-01-08 21:28:00,76.0,73.5,30.27,ESE,112,16.0,22.0,92,0.00,,,-99.99,Weather View 32 v70,2013-01-09 02:28:00,
2013-01-08 21:30:00,74.0,64.0,30.24,East,90,10.0,13.0,71,0.00,,,-99.99,Weather View 32 v70,2013-01-09 02:30:00,
2013-01-08 21:38:00,76.0,73.5,30.28,East,90,13.0,20.0,92,0.00,,,-99.99,Weather View 32 v70,2013-01-09 02:38:00,
2013-01-08 21:40:00,74.0,63.6,30.24,ESE,112,13.0,16.0,70,0.00,,,-99.99,Weather View 32 v70,2013-01-09 02:40:00,
2013-01-08 21:50:00,74.0,64.0,30.25,East,90,11.0,16.0,71,0.00,,,-99.99,Weather View 32 v70,2013-01-09 02:50:00,
2013-01-08 21:58:00,76.0,73.5,30.27,ESE,112,6.0,20.0,92,0.00,,,-99.99,Weather View 32 v70,2013-01-09 02:58:00,
2013-01-08 22:00:00,74.0,63.6,30.25,ESE,112,6.0,16.0,70,0.00,,,-99.99,Weather View 32 v70,2013-01-09 03:00:00,
2013-01-08 22:08:00,76.0,73.5,30.27,ESE,112,9.0,20.0,92,0.00,,,-99.99,Weather View 32 v70,2013-01-09 03:08:00,
2013-01-08 22:10:00,75.0,63.7,30.25,East,90,10.0,16.0,68,0.00,,,-99.99,Weather View 32 v70,2013-01-09 03:10:00,
2013-01-08 22:20:00,74.0,63.1,30.26,East,90,11.0,16.0,69,0.00,,,-99.99,Weather View 32 v70,2013-01-09 03:20:00,
2013-01-08 22:30:00,74.0,64.0,30.25,ENE,67,12.0,16.0,71,0.00,,,-99.99,Weather View 32 v70,2013-01-09 03:30:00,
2013-01-08 22:38:00,76.0,73.5,30.27,East,90,5.0,19.0,92,0.00,,,-99.99,Weather View 32 v70,2013-01-09 03:38:00,
2013-01-08 22:40:00,75.0,64.5,30.25,East,90,13.0,16.0,70,0.00,,,-99.99,Weather View 32 v70,2013-01-09 03:40:00,
2013-01-08 22:48:00,76.0,73.2,30.27,ESE,112,9.0,17.0,91,0.00,,,-99.99,Weather View 32 v70,2013-01-09 03:48:00,
2013-01-08 22:50:00,75.0,64.9,30.25,ESE,112,12.0,16.0,71,0.00,,,-99.99,Weather View 32 v70,2013-01-09 03:50:00,
2013-01-08 22:58:00,76.0,72.8,30.26,ESE,112,5.0,18.0,90,0.00,,,-99.99,Weather View 32 v70,2013-01-09 03:58:00,
2013-01-08 23:00:00,75.0,64.9,30.26,East,90,10.0,16.0,71,0.00,,,-99.99,Weather View 32 v70,2013-01-09 04:00:00,
2013-01-08 23:08:00,76.0,71.8,30.26,ESE,112,6.0,18.0,87,0.00,,,-99.99,Weather View 32 v70,2013-01-09 04:08:00,
2013-01-08 23:10:00,75.0,65.3,30.26,East,90,10.0,16.0,72,0.00,,,-99.99,Weather View 32 v70,2013-01-09 04:10:00,
2013-01-08 23:18:00,76.0,71.8,30.27,ESE,112,10.0,18.0,87,0.00,,,-99.99,Weather View 32 v70,2013-01-09 04:18:00,
2013-01-08 23:20:00,75.0,64.5,30.25,ESE,112,9.0,16.0,70,0.00,,,-99.99,Weather View 32 v70,2013-01-09 04:20:00,
2013-01-08 23:28:00,76.0,71.1,30.26,ESE,112,9.0,18.0,85,0.00,,,-99.99,Weather View 32 v70,2013-01-09 04:28:00,
2013-01-08 23:30:00,75.0,65.7,30.24,ESE,112,10.0,17.0,73,0.00,,,-99.99,Weather View 32 v70,2013-01-09 04:30:00,
2013-01-08 23:40:00,75.0,66.9,30.24,East,90,12.0,19.0,76,0.00,,,-99.99,Weather View 32 v70,2013-01-09 04:40:00,
2013-01-08 23:50:00,75.0,67.3,30.24,East,90,12.0,19.0,77,0.00,,,-99.99,Weather View 32 v70,2013-01-09 04:50:00,